createdAt,value
2023-05-25T00:01:07.672Z,79.28
2023-05-25T00:03:41.136Z,79.08
2023-05-25T00:06:15.747Z,79.09
2023-05-25T00:08:49.619Z,79.03
2023-05-25T00:11:23.570Z,78.94
2023-05-25T00:13:56.935Z,79.22
2023-05-25T00:16:29.857Z,79.12
2023-05-25T00:19:04.750Z,79.36
2023-05-25T00:21:38.593Z,79.37
2023-05-25T00:24:11.742Z,79.48
2023-05-25T00:26:44.673Z,79.73
2023-05-25T00:29:19.459Z,80.00
2023-05-25T00:31:52.413Z,80.10
2023-05-25T00:34:25.781Z,80.30
2023-05-25T00:36:58.661Z,80.26
2023-05-25T00:39:33.345Z,80.09
2023-05-25T00:42:07.954Z,80.52
2023-05-25T00:44:40.836Z,80.61
2023-05-25T00:47:14.361Z,80.90
2023-05-25T00:49:47.233Z,81.20
2023-05-25T00:52:20.258Z,81.26
2023-05-25T00:54:56.310Z,81.17
2023-05-25T00:57:34.468Z,81.23
2023-05-25T01:00:11.629Z,81.23
2023-05-25T01:02:46.605Z,81.30
2023-05-25T01:05:21.946Z,81.39
2023-05-25T01:07:57.578Z,81.75
2023-05-25T01:10:35.127Z,81.73
2023-05-25T01:13:10.786Z,82.06
2023-05-25T01:15:44.166Z,81.98
2023-05-25T01:18:18.420Z,82.04
2023-05-25T01:21:13.291Z,82.20
2023-05-25T01:23:54.385Z,82.47
2023-05-25T01:26:31.460Z,82.55
2023-05-25T01:29:07.945Z,82.68
2023-05-25T01:31:42.310Z,82.51
2023-05-25T01:34:17.526Z,82.59
2023-05-25T01:36:50.569Z,82.61
2023-05-25T01:39:25.950Z,82.54
2023-05-25T01:41:58.861Z,82.54
2023-05-25T01:44:32.726Z,82.57
2023-05-25T01:47:13.088Z,82.52
2023-05-25T01:49:53.761Z,82.28
2023-05-25T01:52:30.508Z,82.17
2023-05-25T01:55:07.405Z,82.11
2023-05-25T01:57:44.738Z,82.24
2023-05-25T02:00:21.562Z,82.31
2023-05-25T02:02:56.153Z,82.36
2023-05-25T02:05:29.475Z,82.38
2023-05-25T02:08:02.298Z,82.43
2023-05-25T02:10:37.337Z,82.25
2023-05-25T02:13:11.128Z,82.57
2023-05-25T02:15:44.590Z,82.64
2023-05-25T02:18:18.465Z,82.78
2023-05-25T02:20:51.620Z,82.74
2023-05-25T02:23:24.405Z,82.76
2023-05-25T02:25:57.344Z,82.62
2023-05-25T02:28:30.580Z,82.76
2023-05-25T02:31:03.605Z,82.78
2023-05-25T02:33:36.584Z,82.82
2023-05-25T02:36:10.316Z,82.73
2023-05-25T02:38:43.576Z,82.81
2023-05-25T02:41:16.999Z,82.88
2023-05-25T02:43:50.926Z,82.87
2023-05-25T02:46:24.028Z,82.99
2023-05-25T02:48:56.905Z,82.99
2023-05-25T02:51:30.960Z,83.07
2023-05-25T02:54:04.505Z,83.03
2023-05-25T02:56:37.622Z,82.76
2023-05-25T02:59:11.311Z,82.82
2023-05-25T03:01:44.169Z,82.61
2023-05-25T03:04:18.416Z,82.53
2023-05-25T03:06:51.291Z,82.63
2023-05-25T03:09:25.095Z,82.52
2023-05-25T03:11:58.233Z,82.36
2023-05-25T03:14:31.429Z,82.46
2023-05-25T03:17:10.182Z,82.37
2023-05-25T03:19:44.273Z,82.53
2023-05-25T03:22:17.565Z,82.89
2023-05-25T03:24:51.706Z,82.81
2023-05-25T03:27:24.577Z,82.85
2023-05-25T03:29:57.677Z,82.97
2023-05-25T03:32:30.902Z,82.90
2023-05-25T03:35:04.659Z,83.02
2023-05-25T03:37:38.138Z,82.91
2023-05-25T03:40:12.994Z,83.05
2023-05-25T03:46:34.942Z,83.19
2023-05-25T03:49:14.059Z,83.11
2023-05-25T03:54:25.684Z,82.99
2023-05-25T03:56:59.920Z,82.89
2023-05-25T03:59:34.434Z,82.68
2023-05-25T04:02:07.929Z,82.67
2023-05-25T04:04:42.123Z,82.50
2023-05-25T04:07:15.014Z,82.46
2023-05-25T04:09:47.953Z,82.35
2023-05-25T04:12:22.654Z,82.29
2023-05-25T04:14:56.802Z,82.11
2023-05-25T04:17:31.049Z,81.99
2023-05-25T04:20:04.538Z,81.85
2023-05-25T04:22:40.560Z,81.54
2023-05-25T04:25:14.598Z,81.43
2023-05-25T04:27:49.545Z,81.20
2023-05-25T04:30:32.020Z,81.09
2023-05-25T04:33:30.077Z,81.01
2023-05-25T04:36:11.255Z,80.80
2023-05-25T04:38:48.862Z,80.64
2023-05-25T04:41:22.509Z,79.96
2023-05-25T04:44:08.949Z,79.94
2023-05-25T04:46:46.950Z,79.76
2023-05-25T04:49:40.203Z,79.57
2023-05-25T04:52:15.614Z,79.57
2023-05-25T04:54:49.413Z,79.43
2023-05-25T04:57:28.637Z,78.97
2023-05-25T05:00:03.446Z,79.04
2023-05-25T05:02:37.750Z,79.08
2023-05-25T05:05:11.710Z,78.82
2023-05-25T05:07:46.196Z,78.62
2023-05-25T05:10:22.027Z,78.38
2023-05-25T05:12:59.756Z,78.20
2023-05-25T05:15:32.792Z,78.17
2023-05-25T05:18:07.195Z,78.14
2023-05-25T05:20:41.244Z,78.26
2023-05-25T05:23:15.419Z,77.99
2023-05-25T05:25:48.249Z,77.89
2023-05-25T05:28:21.670Z,77.49
2023-05-25T05:30:54.599Z,77.46
2023-05-25T05:33:28.576Z,77.31
2023-05-25T05:36:02.922Z,76.76
2023-05-25T05:38:38.760Z,76.25
2023-05-25T05:41:14.665Z,76.03
2023-05-25T05:43:52.198Z,76.47
2023-05-25T05:46:25.025Z,76.37
2023-05-25T05:49:12.103Z,75.88
2023-05-25T05:51:45.999Z,76.21
2023-05-25T05:54:23.840Z,76.09
2023-05-25T05:56:57.421Z,76.31
2023-05-25T05:59:32.521Z,75.94
2023-05-25T06:02:07.752Z,76.07
2023-05-25T06:04:41.534Z,75.53
2023-05-25T06:07:16.458Z,75.08
2023-05-25T06:09:49.312Z,75.42
2023-05-25T06:12:22.134Z,75.15
2023-05-25T06:15:13.894Z,74.14
2023-05-25T06:17:47.240Z,74.30
2023-05-25T06:20:21.290Z,73.93
2023-05-25T06:22:55.000Z,73.32
2023-05-25T06:25:45.457Z,73.06
2023-05-25T06:28:18.727Z,72.40
2023-05-25T06:31:03.976Z,71.86
2023-05-25T06:33:59.544Z,71.86
2023-05-25T06:36:46.947Z,71.44
2023-05-25T06:39:47.695Z,71.33
2023-05-25T06:42:24.147Z,70.68
2023-05-25T06:45:03.150Z,71.23
2023-05-25T06:47:38.950Z,71.40
2023-05-25T06:50:13.862Z,71.31
2023-05-25T06:52:46.944Z,70.82
2023-05-25T06:55:21.258Z,70.61
2023-05-25T06:57:56.897Z,70.89
2023-05-25T07:00:29.745Z,70.43
2023-05-25T07:03:02.902Z,70.28
2023-05-25T07:05:36.120Z,70.00
2023-05-25T07:08:11.193Z,70.12
2023-05-25T07:10:44.995Z,70.01
2023-05-25T07:13:19.598Z,70.46
2023-05-25T07:15:53.173Z,70.67
2023-05-25T07:18:28.148Z,70.57
2023-05-25T07:21:01.009Z,70.51
2023-05-25T07:23:35.368Z,70.51
2023-05-25T07:26:08.363Z,70.19
2023-05-25T07:29:05.510Z,70.51
2023-05-25T07:31:38.338Z,70.71
2023-05-25T07:34:11.202Z,70.92
2023-05-25T07:36:44.631Z,70.47
2023-05-25T07:39:18.415Z,70.63
2023-05-25T07:41:51.237Z,70.54
2023-05-25T07:44:25.076Z,70.35
2023-05-25T07:46:58.017Z,70.33
2023-05-25T07:49:36.625Z,70.10
2023-05-25T07:52:11.320Z,69.84
2023-05-25T07:54:48.913Z,69.59
2023-05-25T07:57:21.883Z,69.33
2023-05-25T07:59:57.361Z,69.78
2023-05-25T08:02:30.358Z,70.04
2023-05-25T08:05:06.686Z,69.32
2023-05-25T08:07:40.747Z,69.07
2023-05-25T08:10:16.686Z,69.47
2023-05-25T08:12:51.225Z,69.45
2023-05-25T08:15:26.603Z,69.37
2023-05-25T08:17:59.677Z,69.34
2023-05-25T08:20:33.228Z,68.46
2023-05-25T08:23:14.281Z,68.09
2023-05-25T08:25:47.228Z,68.00
2023-05-25T08:28:22.532Z,67.27
2023-05-25T08:31:01.143Z,66.87
2023-05-25T08:34:08.292Z,66.35
2023-05-25T08:36:42.035Z,66.69
2023-05-25T08:39:16.039Z,67.15
2023-05-25T08:41:54.160Z,65.97
2023-05-25T08:44:29.588Z,64.82
2023-05-25T08:47:08.536Z,64.54
2023-05-25T08:49:47.827Z,64.61
2023-05-25T08:52:30.615Z,64.50
2023-05-25T08:55:18.001Z,63.68
2023-05-25T08:58:05.670Z,63.69
2023-05-25T09:00:46.271Z,62.86
2023-05-25T09:03:25.994Z,63.38
2023-05-25T09:07:08.751Z,63.51
2023-05-25T09:10:09.117Z,63.26
2023-05-25T09:12:43.788Z,62.97
2023-05-25T09:15:21.215Z,62.67
2023-05-25T09:17:59.132Z,61.80
2023-05-25T09:20:43.654Z,61.67
2023-05-25T09:23:24.333Z,61.01
2023-05-25T09:25:57.855Z,60.77
2023-05-25T09:28:38.610Z,59.70
2023-05-25T09:31:14.654Z,59.02
2023-05-25T09:34:00.884Z,59.62
2023-05-25T09:36:37.102Z,59.32
2023-05-25T09:39:14.490Z,59.39
2023-05-25T09:41:52.602Z,59.52
2023-05-25T09:44:31.032Z,58.38
2023-05-25T09:47:09.042Z,56.70
2023-05-25T09:49:48.079Z,57.09
2023-05-25T09:52:23.828Z,57.45
2023-05-25T09:55:10.672Z,57.77
2023-05-25T09:58:03.892Z,57.06
2023-05-25T10:00:36.720Z,55.95
2023-05-25T10:03:15.631Z,55.81
2023-05-25T10:06:02.926Z,55.24
2023-05-25T10:08:37.178Z,55.30
2023-05-25T10:11:18.529Z,55.55
2023-05-25T10:14:04.526Z,56.12
2023-05-25T10:16:40.564Z,56.23
2023-05-25T10:19:33.011Z,56.75
2023-05-25T10:22:43.642Z,56.50
2023-05-25T10:25:28.031Z,55.56
2023-05-25T10:28:09.820Z,56.00
2023-05-25T10:30:47.281Z,55.62
2023-05-25T10:33:52.520Z,55.88
2023-05-25T10:36:51.578Z,55.88
2023-05-25T10:39:38.836Z,56.24
2023-05-25T10:42:13.395Z,55.88
2023-05-25T10:44:51.594Z,54.97
2023-05-25T10:47:24.837Z,54.49
2023-05-25T10:50:07.382Z,54.54
2023-05-25T10:52:40.978Z,54.39
2023-05-25T10:55:14.049Z,54.68
2023-05-25T10:58:12.140Z,54.83
2023-05-25T11:01:01.736Z,53.40
2023-05-25T11:03:57.509Z,53.26
2023-05-25T11:07:03.177Z,53.77
2023-05-25T11:09:43.693Z,53.75
2023-05-25T11:12:28.006Z,53.31
2023-05-25T11:15:16.837Z,52.68
2023-05-25T11:18:03.186Z,52.61
2023-05-25T11:20:41.933Z,52.12
2023-05-25T11:23:29.479Z,52.02
2023-05-25T11:26:08.221Z,52.46
2023-05-25T11:29:04.765Z,51.78
2023-05-25T11:31:43.667Z,51.88
2023-05-25T11:34:18.927Z,51.92
2023-05-25T11:37:25.209Z,51.11
2023-05-25T11:40:21.985Z,50.89
2023-05-25T11:42:57.220Z,50.93
2023-05-25T11:45:31.760Z,50.32
2023-05-25T11:48:10.652Z,49.91
2023-05-25T11:50:45.927Z,50.09
2023-05-25T11:53:39.315Z,49.83
2023-05-25T11:56:30.728Z,49.65
2023-05-25T11:59:28.230Z,49.77
2023-05-25T12:02:06.284Z,50.28
2023-05-25T12:04:41.298Z,50.42
2023-05-25T12:07:16.548Z,49.94
2023-05-25T12:09:56.406Z,49.40
2023-05-25T12:12:34.258Z,49.86
2023-05-25T12:15:12.001Z,49.39
2023-05-25T12:17:57.765Z,48.94
2023-05-25T12:20:31.399Z,49.33
2023-05-25T12:23:09.416Z,49.39
2023-05-25T12:25:50.237Z,48.12
2023-05-25T12:28:26.578Z,48.93
2023-05-25T12:31:30.285Z,48.60
2023-05-25T12:34:15.915Z,47.89
2023-05-25T12:36:52.395Z,47.08
2023-05-25T12:39:40.146Z,47.13
2023-05-25T12:42:27.417Z,48.16
2023-05-25T12:45:33.138Z,48.49
2023-05-25T12:48:09.981Z,48.97
2023-05-25T12:51:21.084Z,48.54
2023-05-25T12:53:57.952Z,48.05
2023-05-25T12:56:31.723Z,48.15
2023-05-25T12:59:21.795Z,47.84
2023-05-25T13:01:54.654Z,48.30
2023-05-25T13:04:28.234Z,48.37
2023-05-25T13:07:03.758Z,48.50
2023-05-25T13:09:36.628Z,48.10
2023-05-25T13:12:11.384Z,48.07
2023-05-25T13:14:45.372Z,48.04
2023-05-25T13:17:23.543Z,48.33
2023-05-25T13:20:01.512Z,48.00
2023-05-25T13:22:39.260Z,48.02
2023-05-25T13:25:19.244Z,47.79
2023-05-25T13:28:03.445Z,47.92
2023-05-25T13:30:48.682Z,47.54
2023-05-25T13:33:36.580Z,47.18
2023-05-25T13:36:12.608Z,47.16
2023-05-25T13:38:47.291Z,47.31
2023-05-25T13:41:51.501Z,46.87
2023-05-25T13:44:27.879Z,47.08
2023-05-25T13:47:08.925Z,46.55
2023-05-25T13:49:52.209Z,46.42
2023-05-25T13:52:29.999Z,46.39
2023-05-25T13:55:11.726Z,45.89
2023-05-25T13:57:54.729Z,46.17
2023-05-25T14:00:30.110Z,46.71
2023-05-25T14:03:04.020Z,46.93
2023-05-25T14:06:04.037Z,47.02
2023-05-25T14:08:37.712Z,46.80
2023-05-25T14:11:27.929Z,46.01
2023-05-25T14:14:11.464Z,46.41
2023-05-25T14:16:49.580Z,46.31
2023-05-25T14:19:22.816Z,45.88
2023-05-25T14:22:13.362Z,46.38
2023-05-25T14:24:55.265Z,46.02
2023-05-25T14:27:33.093Z,45.60
2023-05-25T14:30:20.686Z,45.97
2023-05-25T14:32:57.176Z,46.24
2023-05-25T14:35:45.373Z,46.96
2023-05-25T14:38:21.933Z,46.62
2023-05-25T14:41:11.745Z,46.61
2023-05-25T14:43:50.797Z,46.68
2023-05-25T14:46:26.323Z,46.16
2023-05-25T14:49:00.276Z,46.24
2023-05-25T14:51:38.337Z,46.38
2023-05-25T14:54:13.810Z,46.00
2023-05-25T14:56:52.629Z,45.60
2023-05-25T14:59:37.087Z,45.27
2023-05-25T15:02:11.712Z,45.33
2023-05-25T15:04:52.790Z,45.16
2023-05-25T15:07:28.595Z,45.41
2023-05-25T15:10:04.118Z,45.40
2023-05-25T15:12:41.965Z,45.11
2023-05-25T15:15:20.595Z,44.93
2023-05-25T15:18:00.799Z,44.66
2023-05-25T15:20:37.422Z,44.92
2023-05-25T15:23:13.028Z,45.46
2023-05-25T15:25:50.894Z,45.60
2023-05-25T15:28:27.150Z,45.50
2023-05-25T15:31:04.609Z,45.91
2023-05-25T15:33:56.326Z,45.82
2023-05-25T15:36:40.660Z,45.39
2023-05-25T15:39:17.265Z,45.45
2023-05-25T15:41:56.737Z,45.86
2023-05-25T15:44:38.459Z,46.18
2023-05-25T15:47:22.612Z,46.08
2023-05-25T15:49:58.775Z,45.91
2023-05-25T15:52:38.446Z,45.75
2023-05-25T15:55:20.371Z,45.92
2023-05-25T15:57:59.159Z,45.94
2023-05-25T16:00:38.301Z,46.04
2023-05-25T16:03:14.746Z,46.31
2023-05-25T16:05:51.619Z,46.48
2023-05-25T16:08:35.084Z,46.02
2023-05-25T16:12:01.219Z,46.06
2023-05-25T16:14:36.130Z,46.62
2023-05-25T16:17:12.990Z,46.83
2023-05-25T16:19:47.701Z,46.97
2023-05-25T16:22:24.608Z,47.04
2023-05-25T16:24:57.453Z,46.26
2023-05-25T16:27:33.544Z,45.91
2023-05-25T16:30:31.261Z,45.88
2023-05-25T16:33:04.271Z,46.01
2023-05-25T16:35:37.202Z,46.03
2023-05-25T16:38:10.836Z,45.78
2023-05-25T16:40:46.850Z,45.73
2023-05-25T16:43:22.242Z,46.01
2023-05-25T16:45:55.675Z,46.38
2023-05-25T16:48:34.770Z,46.80
2023-05-25T16:51:15.450Z,46.83
2023-05-25T16:53:48.284Z,46.58
2023-05-25T16:56:22.730Z,46.59
2023-05-25T16:58:58.212Z,46.73
2023-05-25T17:01:35.264Z,46.98
2023-05-25T17:04:10.737Z,47.23
2023-05-25T17:06:45.432Z,47.34
2023-05-25T17:09:18.595Z,47.25
2023-05-25T17:11:53.671Z,47.39
2023-05-25T17:14:33.240Z,46.86
2023-05-25T17:17:10.742Z,47.08
2023-05-25T17:19:43.912Z,47.19
2023-05-25T17:22:17.166Z,47.12
2023-05-25T17:24:51.172Z,47.58
2023-05-25T17:27:25.524Z,47.58
2023-05-25T17:29:58.306Z,47.92
2023-05-25T17:32:31.306Z,47.89
2023-05-25T17:35:04.935Z,48.44
2023-05-25T17:37:37.710Z,48.21
2023-05-25T17:40:12.753Z,48.41
2023-05-25T17:42:49.573Z,48.69
2023-05-25T17:45:24.346Z,48.83
2023-05-25T17:48:05.296Z,48.77
2023-05-25T17:50:39.092Z,49.06
2023-05-25T17:53:42.760Z,49.41
2023-05-25T17:56:15.661Z,49.33
2023-05-25T17:58:48.529Z,49.71
2023-05-25T18:01:21.513Z,49.68
2023-05-25T18:03:54.760Z,49.67
2023-05-25T18:06:29.393Z,49.85
2023-05-25T18:09:02.714Z,49.98
2023-05-25T18:11:36.888Z,50.09
2023-05-25T18:14:12.386Z,50.30
2023-05-25T18:16:45.365Z,50.47
2023-05-25T18:19:20.537Z,50.47
2023-05-25T18:21:53.348Z,50.59
2023-05-25T18:24:26.472Z,50.74
2023-05-25T18:27:04.094Z,51.00
2023-05-25T18:29:40.376Z,51.19
2023-05-25T18:32:13.264Z,51.74
2023-05-25T18:34:48.540Z,51.87
2023-05-25T18:37:23.481Z,52.20
2023-05-25T18:39:56.357Z,52.44
2023-05-25T18:42:30.566Z,52.40
2023-05-25T18:45:04.713Z,52.41
2023-05-25T18:47:37.550Z,52.67
2023-05-25T18:50:12.609Z,52.96
2023-05-25T18:52:58.193Z,53.36
2023-05-25T18:55:31.308Z,53.62
2023-05-25T18:58:06.111Z,54.10
2023-05-25T19:00:42.740Z,54.15
2023-05-25T19:03:15.751Z,54.26
2023-05-25T19:05:58.398Z,54.45
2023-05-25T19:08:32.036Z,54.52
2023-05-25T19:11:05.972Z,54.63
2023-05-25T19:13:47.230Z,54.88
2023-05-25T19:16:20.224Z,54.87
2023-05-25T19:18:56.844Z,54.92
2023-05-25T19:21:29.844Z,55.29
2023-05-25T19:24:02.689Z,55.40
2023-05-25T19:26:36.853Z,55.60
2023-05-25T19:29:09.836Z,56.01
2023-05-25T19:32:00.938Z,56.07
2023-05-25T19:34:36.060Z,56.48
2023-05-25T19:37:11.384Z,56.69
2023-05-25T19:39:48.050Z,56.76
2023-05-25T19:42:20.919Z,56.98
2023-05-25T19:45:10.210Z,57.04
2023-05-25T19:47:48.922Z,57.10
2023-05-25T19:50:33.461Z,57.19
2023-05-25T19:53:07.765Z,57.28
2023-05-25T19:55:44.032Z,57.36
2023-05-25T19:58:26.413Z,57.33
2023-05-25T20:01:05.700Z,57.28
2023-05-25T20:03:38.599Z,57.09
2023-05-25T20:06:12.062Z,57.32
2023-05-25T20:08:45.675Z,57.53
2023-05-25T20:11:19.673Z,57.41
2023-05-25T20:14:24.371Z,57.40
2023-05-25T20:17:02.381Z,57.59
2023-05-25T20:19:44.398Z,57.63
2023-05-25T20:22:23.437Z,57.85
2023-05-25T20:25:03.693Z,58.00
2023-05-25T20:27:58.622Z,58.14
2023-05-25T20:30:36.366Z,58.33
2023-05-25T20:33:19.392Z,58.58
2023-05-25T20:35:56.213Z,58.41
2023-05-25T20:38:29.050Z,58.25
2023-05-25T20:41:07.216Z,58.30
2023-05-25T20:43:51.377Z,58.31
2023-05-25T20:46:28.519Z,58.31
2023-05-25T20:49:28.264Z,58.33
2023-05-25T20:52:07.885Z,58.53
2023-05-25T20:54:45.001Z,58.75
2023-05-25T20:57:25.215Z,58.59
2023-05-25T21:00:03.699Z,58.68
2023-05-25T21:02:36.816Z,58.72
2023-05-25T21:05:27.125Z,58.70
2023-05-25T21:08:04.151Z,58.55
2023-05-25T21:10:52.222Z,58.68
2023-05-25T21:13:33.893Z,58.93
2023-05-25T21:16:18.405Z,59.03
2023-05-25T21:18:51.481Z,59.18
2023-05-25T21:21:28.201Z,59.20
2023-05-25T21:24:17.218Z,59.24
2023-05-25T21:26:53.331Z,59.32
2023-05-25T21:29:28.711Z,59.30
2023-05-25T21:32:01.712Z,59.31
2023-05-25T21:34:42.302Z,59.58
2023-05-25T21:37:18.759Z,59.74
2023-05-25T21:39:51.561Z,59.80
2023-05-25T21:42:26.280Z,59.75
2023-05-25T21:45:24.816Z,59.85
2023-05-25T21:48:02.149Z,59.98
2023-05-25T21:50:36.400Z,60.08
2023-05-25T21:53:09.967Z,60.16
2023-05-25T21:55:43.086Z,60.30
2023-05-25T21:58:18.823Z,60.29
2023-05-25T22:01:02.853Z,60.50
2023-05-25T22:03:36.556Z,60.73
2023-05-25T22:06:10.297Z,60.84
2023-05-25T22:08:43.050Z,60.77
2023-05-25T22:11:15.865Z,60.85
2023-05-25T22:13:48.708Z,60.92
2023-05-25T22:16:21.610Z,60.90
2023-05-25T22:18:59.944Z,60.96
2023-05-25T22:21:35.012Z,61.12
2023-05-25T22:24:09.493Z,61.21
2023-05-25T22:26:42.362Z,61.20
2023-05-25T22:29:15.141Z,61.41
2023-05-25T22:31:47.955Z,61.36
2023-05-25T22:34:23.024Z,61.52
2023-05-25T22:36:58.037Z,61.46
2023-05-25T22:39:30.871Z,61.51
2023-05-25T22:42:04.033Z,61.63
2023-05-25T22:44:40.468Z,61.76
2023-05-25T22:47:14.640Z,62.00
2023-05-25T22:49:50.454Z,62.02
2023-05-25T22:52:23.939Z,62.18
2023-05-25T22:54:56.690Z,62.17
2023-05-25T22:57:29.532Z,62.37
2023-05-25T23:00:02.524Z,62.60
2023-05-25T23:02:38.527Z,62.57
2023-05-25T23:05:12.402Z,62.68
2023-05-25T23:07:47.082Z,62.80
2023-05-25T23:10:21.163Z,62.91
2023-05-25T23:12:54.784Z,62.84
2023-05-25T23:15:29.348Z,62.87
2023-05-25T23:18:04.347Z,62.78
2023-05-25T23:20:40.735Z,62.75
2023-05-25T23:23:14.913Z,62.75
2023-05-25T23:25:48.018Z,62.80
2023-05-25T23:28:24.199Z,62.95
2023-05-25T23:30:57.330Z,62.90
2023-05-25T23:33:31.152Z,62.88
2023-05-25T23:36:04.453Z,62.99
2023-05-25T23:38:37.342Z,63.07
2023-05-25T23:41:10.690Z,63.24
2023-05-25T23:43:43.463Z,63.26
2023-05-25T23:46:17.491Z,63.37
2023-05-25T23:48:55.725Z,63.26
2023-05-25T23:51:29.168Z,63.27
2023-05-25T23:54:03.301Z,63.36
2023-05-25T23:56:37.984Z,63.04
2023-05-25T23:59:35.207Z,63.37
